• Join FlightAware (Why Join?)
  • Login
  • US Flag 
06:23PM EDT


 

Airport Tracker/Info


-or-


 

Live Flight TrackerFlight Track Log ✈ UAL149 ✈ 06-May-2013 ✈ KDEN - KBWI

Flight Track Log - Related Links

Times and Time Zones

All times are in EDT time to prevent confusion due to time zone crossing. See the UAL149 flight status page for this flight to view local times or setup timezone preferences in your user account.

Time Position Orientation Groundspeed Altitude Reporting Facility
EDT Latitude Longitude Course Direction KTS MPH feet Rate Location/Type
09:52PM 39.9333 -104.6333 90° East 243 280 8,100  Level Denver TRACON
09:53PM 39.9500 -104.5333 78° East 302 348 10,000 1,200 Climbing Denver TRACON
09:54PM 39.8667 -104.1983 90° East  Level FlightAware Approximate
09:54PM 39.9500 -104.4500 90° East 300 345 10,400  Level Denver TRACON
09:55PM 39.8667 -104.0417 90° East  Level FlightAware Approximate
09:55PM 39.9481 -104.3656 92° East 308 354 11,900  Level Denver Center
09:56PM 39.8667 -103.8852 90° East  Level FlightAware Approximate
09:57PM 39.8833 -103.7321 90° East  Level FlightAware Approximate
09:57PM 39.9008 -104.1153 104° East 356 410 18,200  Level Denver Center
09:58PM 39.8814 -103.9825 101° East 374 430 20,700 1,680 Climbing Denver Center
10:00PM 39.8886 -103.6808 88° East 414 476 23,500 1,200 Climbing Denver Center
10:01PM 39.9100 -103.5092 81° East 473 544 24,500 1,200 Climbing Denver Center
10:02PM 39.9297 -103.3317 82° East 489 563 26,100 2,160 Climbing Denver Center
10:03PM 39.9489 -103.1581 82° East 482 555 29,000 2,280 Climbing Denver Center
10:04PM 39.9672 -102.9936 82° East 459 528 30,900 1,860 Climbing Denver Center
10:05PM 39.9894 -102.7972 82° East 466 536 32,900 1,500 Climbing Denver Center
10:07PM 40.0231 -102.4639 82° East 461 531 35,600 1,200 Climbing Denver Center
10:08PM 40.0397 -102.3031 82° East 468 539 36,700 1,200 Climbing Denver Center
10:09PM 40.0547 -102.1164 84° East 462 532 38,100 1,020 Climbing Denver Center
10:10PM 40.0608 -101.9575 87° East 460 529 38,900 420 Climbing Denver Center
10:11PM 40.0708 -101.7714 86° East 463 533 39,000  Climbing Denver Center
10:12PM 40.0778 -101.6089 87° East 468 539 39,000  Level Denver Center
10:13PM 40.0869 -101.4194 86° East 470 541 39,000  Level Denver Center
10:14PM 40.0947 -101.2572 86° East 470 541 39,000  Level Denver Center
10:15PM 40.1006 -101.0953 87° East 469 540 39,000  Level Denver Center
10:16PM 40.1089 -100.9050 87° East 471 542 39,000  Level Denver Center
10:17PM 40.1147 -100.7414 87° East 473 544 39,000  Level Denver Center
10:18PM 40.1222 -100.5503 87° East 474 545 39,000  Level Denver Center
10:19PM 40.1286 -100.3864 87° East 475 547 39,000  Level Denver Center
10:20PM 40.1344 -100.1969 88° East 471 542 39,000  Level Denver Center
10:21PM 40.1397 -100.0339 88° East 472 543 39,000  Level Denver Center
10:22PM 40.1444 -99.8664 88° East 468 539 39,000  Level Denver Center
10:23PM 40.1506 -99.6981 87° East 466 536 39,000  Level Denver Center
10:24PM 40.1558 -99.4925 88° East 471 542 39,000  Level Denver Center
10:25PM 40.1600 -99.3228 88° East 469 540 39,000  Level Denver Center
10:26PM 40.1642 -99.1525 88° East 471 542 39,000  Level Denver Center
10:27PM 40.1689 -98.9833 88° East 468 539 39,000  Level Denver Center
10:28PM 40.1719 -98.8483 88° East 470 541 39,000  Level Minneapolis Center
10:29PM 40.1761 -98.6792 88° East 468 539 39,000  Level Minneapolis Center
10:30PM 40.1783 -98.5092 89° East 469 540 39,000  Level Minneapolis Center
10:31PM 40.1825 -98.3386 88° East 470 541 39,000  Level Minneapolis Center
10:32PM 40.1844 -98.1681 89° East 471 542 39,000  Level Minneapolis Center
10:33PM 40.1872 -97.9967 89° East 471 542 39,000  Level Minneapolis Center
10:34PM 40.1892 -97.8242 89° East 474 545 39,000  Level Minneapolis Center
10:35PM 40.1914 -97.6522 89° East 475 547 39,000  Level Minneapolis Center
10:36PM 40.1931 -97.4786 89° East 477 549 39,000  Level Minneapolis Center
10:37PM 40.1953 -97.2986 89° East 476 548 39,000  Level Minneapolis Center
10:38PM 40.1975 -97.1269 89° East 475 547 39,000  Level Minneapolis Center
10:39PM 40.1975 -96.9550 90° East 474 545 39,000  Level Minneapolis Center
10:40PM 40.1992 -96.7847 89° East 473 544 39,000  Level Minneapolis Center
10:41PM 40.1992 -96.5803 90° East 470 541 39,000  Level Minneapolis Center
10:42PM 40.1997 -96.4122 90° East 467 537 39,000  Level Minneapolis Center
10:44PM 40.1997 -96.2436 90° East 465 535 39,000  Level Minneapolis Center
10:45PM 40.1997 -96.0758 90° East 465 535 39,000  Level Minneapolis Center
10:46PM 40.1981 -95.9078 91° East 465 535 39,000  Level Minneapolis Center
10:47PM 40.1978 -95.7389 90° East 465 535 39,000  Level Minneapolis Center
10:48PM 40.1972 -95.5717 90° East 465 535 39,000  Level Minneapolis Center
10:49PM 40.1950 -95.4031 91° East 465 535 39,000  Level Minneapolis Center
10:50PM 40.1947 -95.2306 90° East 470 541 39,000  Level Minneapolis Center
10:51PM 40.1928 -95.0286 91° East 466 536 39,000  Level Minneapolis Center
10:52PM 40.1900 -94.8606 91° East 466 536 39,000  Level Minneapolis Center
10:53PM 40.1867 -94.6919 91° East 466 536 39,000  Level Minneapolis Center
10:55PM 40.1806 -94.3647 91° East 465 535 39,000  Level Minneapolis Center
10:55PM 40.1786 -94.2775 92° East 465 535 39,000  Level Kansas City Center
10:56PM 40.1761 -94.1167 91° East 463 533 39,000  Level Kansas City Center
10:57PM 40.1717 -93.9619 92° East 468 539 39,000  Level Kansas City Center
10:58PM 40.1664 -93.7592 92° East 468 539 39,000  Level Kansas City Center
10:59PM 40.1633 -93.5906 91° East 469 540 39,000  Level Kansas City Center
11:00PM 40.1575 -93.4192 92° East 473 544 39,000  Level Kansas City Center
11:01PM 40.1531 -93.2508 92° East 469 540 39,000  Level Kansas City Center
11:02PM 40.1486 -93.0806 92° East 473 544 39,000  Level Kansas City Center
11:03PM 40.1436 -92.9167 92° East 466 536 39,000  Level Kansas City Center
11:04PM 40.1381 -92.7269 92° East 466 536 39,000  Level Kansas City Center
11:05PM 40.1322 -92.5656 93° East 465 535 39,000  Level Kansas City Center
11:06PM 40.1447 -92.4064 84° East 459 528 39,000  Level Kansas City Center
11:07PM 40.1539 -92.2289 86° East 457 526 39,000  Level Kansas City Center
11:08PM 40.1617 -92.0675 86° East 453 521 39,000  Level Kansas City Center
11:09PM 40.1692 -91.9058 86° East 451 519 39,000  Level Kansas City Center
11:10PM 40.1758 -91.7436 87° East 452 520 39,000  Level Kansas City Center
11:11PM 40.1833 -91.5819 86° East 451 519 39,000  Level Kansas City Center
11:12PM 40.1908 -91.4214 86° East 448 516 39,000  Level Kansas City Center
11:13PM 40.1994 -91.2283 87° East 447 514 39,000  Level Kansas City Center
11:14PM 40.2058 -91.0692 87° East 443 510 39,000  Level Kansas City Center
11:15PM 40.2128 -90.9128 87° East 440 506 39,000  Level Kansas City Center
11:16PM 40.2183 -90.7853 87° East 439 505 39,000  Level Chicago Center
11:17PM 40.2239 -90.5956 88° East 438 504 39,000  Level Chicago Center
11:18PM 40.2306 -90.4383 87° East 435 501 39,000  Level Chicago Center
11:19PM 40.2353 -90.2808 88° East 436 502 39,000  Level Chicago Center
11:20PM 40.2392 -90.1242 88° East 434 499 39,000  Level Chicago Center
11:21PM 40.2444 -89.9675 87° East 435 501 39,000  Level Chicago Center
11:22PM 40.2486 -89.8106 88° East 436 502 39,000  Level Chicago Center
11:23PM 40.2528 -89.6522 88° East 439 505 39,000  Level Chicago Center
11:24PM 40.2572 -89.4925 88° East 441 507 39,000  Level Chicago Center
11:26PM 40.2611 -89.3325 88° East 442 509 39,000  Level Chicago Center
11:27PM 40.2656 -89.1733 88° East 441 507 39,000  Level Chicago Center
11:28PM 40.2708 -88.9814 88° East 442 509 39,000  Level Chicago Center
11:29PM 40.2742 -88.8225 88° East 440 506 39,000  Level Chicago Center
11:30PM 40.2772 -88.6631 89° East 439 505 39,000  Level Chicago Center
11:31PM 40.2803 -88.5033 89° East 442 509 39,000  Level Chicago Center
11:32PM 40.2828 -88.3497 89° East 440 506 39,000  Level Chicago Center
11:33PM 40.2864 -88.1931 88° East 434 499 39,000  Level Chicago Center
11:34PM 40.2886 -88.0353 89° East 438 504 39,000  Level Chicago Center
11:35PM 40.2903 -87.8792 89° East 434 499 39,000  Level Chicago Center
11:36PM 40.2933 -87.6914 89° East 435 501 39,000  Level Chicago Center
11:37PM 40.2956 -87.5336 89° East 437 503 39,000  Level Chicago Center
11:38PM 40.2922 -87.3914 92° East 433 498 39,000  Level Chicago Center
11:39PM 40.2889 -87.2347 92° East 432 497 39,000  Level Chicago Center
11:40PM 40.2847 -87.0789 92° East 429 494 39,000  Level Chicago Center
11:41PM 40.2819 -86.9222 91° East 431 496 39,000  Level Chicago Center
11:42PM 40.2781 -86.7667 92° East 430 495 39,000  Level Chicago Center
11:43PM 40.2744 -86.6111 92° East 429 494 39,000  Level Chicago Center
11:44PM 40.2711 -86.4556 92° East 428 493 39,000  Level Chicago Center
11:45PM 40.2661 -86.2675 92° East 429 494 39,000  Level Chicago Center
11:46PM 40.2608 -86.1100 92° East 433 498 39,000  Level Chicago Center
11:47PM 40.2550 -85.9528 93° East 433 498 39,000  Level Chicago Center
11:48PM 40.2522 -85.8011 91° East 421 484 39,000  Level Chicago Center
11:49PM 40.2483 -85.6467 92° East 424 488 39,000  Level Chicago Center
11:50PM 40.2439 -85.4908 92° East 426 490 39,000  Level Chicago Center
11:51PM 40.2394 -85.3400 92° East 418 481 39,000  Level Chicago Center
11:52PM 40.2364 -85.1872 91° East 418 481 39,000  Level Chicago Center
11:53PM 40.2303 -85.0358 93° East 419 482 39,000  Level Chicago Center
11:54PM 40.2247 -84.8853 93° East 416 479 39,000  Level Chicago Center
11:55PM 40.2203 -84.7367 92° East 409 471 39,000  Level Chicago Center
11:56PM 40.2150 -84.5883 93° East 409 471 39,000  Level Chicago Center
11:57PM 40.2097 -84.4406 93° East 407 468 39,000  Level Chicago Center
11:58PM 40.2033 -84.2753 93° East 411 473 39,000  Level Chicago Center
11:59PM 40.1969 -84.1258 93° East 413 475 39,000  Level Chicago Center
12:00AM 40.1903 -83.9775 93° East 412 474 39,000  Level Chicago Center
12:01AM 40.1847 -83.8289 93° East 411 473 39,000  Level Chicago Center
12:02AM 40.1778 -83.6797 93° East 412 474 39,000 -60 Level Chicago Center
12:04AM 40.1623 -83.4761 96° East  Level FlightAware Approximate
12:04AM 40.1625 -83.3350 96° East 418 481 38,900  Level Indianapolis Center
12:05AM 40.1550 -83.1797 94° East 420 483 38,900  Level Indianapolis Center
12:06AM 40.1492 -83.0500 93° East 422 486 39,000  Climbing Indianapolis Center
12:07AM 40.1408 -82.8961 94° East 422 486 38,900  Descending Indianapolis Center
12:08AM 40.1325 -82.7422 94° East 421 484 39,000  Climbing Indianapolis Center
12:09AM 40.1253 -82.5906 94° East 416 479 39,000 -240 Level Indianapolis Center
12:10AM 40.1164 -82.4381 94° East 417 480 38,600 -660 Descending Indianapolis Center
12:11AM 40.1081 -82.2836 94° East 420 483 37,700 -840 Descending Indianapolis Center
12:12AM 40.0997 -82.1319 94° East 415 478 37,000 -360 Descending Indianapolis Center
12:13AM 40.0906 -81.9878 95° East 398 458 37,000 -60 Level Indianapolis Center
12:14AM 40.0822 -81.8414 94° East 400 460 36,900  Descending Indianapolis Center
12:15AM 40.0722 -81.6778 95° East 401 461 37,000  Climbing Indianapolis Center
12:16AM 40.0628 -81.5336 95° East 398 458 37,000  Level Indianapolis Center
12:17AM 40.0539 -81.3894 95° East 397 457 37,000  Level Indianapolis Center
12:18AM 40.0447 -81.2453 95° East 396 456 37,000  Level Indianapolis Center
12:19AM 40.0350 -81.1008 95° East 397 457 37,000  Level Indianapolis Center
12:20AM 40.0075 -80.9628 105° East 393 452 37,000  Level Indianapolis Center
12:21AM 39.9817 -80.8222 103° East 395 455 37,000  Level Indianapolis Center
12:22AM 39.9556 -80.6817 104° East 399 459 37,000  Level Indianapolis Center
12:23AM 39.9292 -80.5397 104° East 398 458 37,000  Level Indianapolis Center
12:24AM 39.9033 -80.3989 103° East 399 459 37,000  Level Indianapolis Center
12:25AM 39.8753 -80.2583 105° East 399 459 37,000  Level Indianapolis Center
12:26AM 39.8589 -80.1489 101° East 396 456 37,000  Level Washington Center
12:27AM 39.8308 -80.0067 104° East 396 456 37,000  Level Washington Center
12:28AM 39.8025 -79.8672 105° East 396 456 37,000  Level Washington Center
12:29AM 39.7742 -79.7278 105° East 401 461 37,000  Level Washington Center
12:30AM 39.7458 -79.5722 103° East 401 461 37,000  Level Washington Center
12:31AM 39.7172 -79.4331 105° East 401 461 37,000 -360 Level Washington Center
12:32AM 39.6883 -79.2911 105° East 401 461 36,300 -840 Descending Washington Center
12:33AM 39.6611 -79.1497 104° East 401 461 35,400 -960 Descending Washington Center
12:34AM 39.6319 -79.0081 105° East 401 461 34,400 -960 Descending Washington Center
12:35AM 39.6044 -78.8747 105° East 410 472 33,500 -840 Descending Washington Center
12:36AM 39.5669 -78.7169 107° East 415 478 32,800 -2,280 Descending Washington Center
12:37AM 39.5411 -78.5814 104° East 420 483 29,000 -3,300 Descending Washington Center
12:38AM 39.5114 -78.4375 105° East 420 483 26,200 -2,700 Descending Washington Center
12:39AM 39.4811 -78.2964 105° East 415 478 23,600 -2,700 Descending Washington Center
12:40AM 39.4489 -78.1503 106° East 401 461 20,900 -2,580 Descending Washington Center
12:41AM 39.4206 -78.0175 105° East 395 455 18,500 -2,580 Descending Washington Center
12:42AM 39.3917 -77.8875 106° East 383 441 15,800 -1,800 Descending Washington Center
12:43AM 39.3942 -77.7614 88° East 366 421 14,900 -1,440 Descending Washington Center
12:44AM 39.3753 -77.6400 101° East 354 407 13,000 -2,040 Descending Washington Center
12:45AM 39.3500 -77.5333 107° East 339 390 11,100 -1,620 Descending Potomac TRACON
12:46AM 39.3167 -77.4333 113° Southeast 289 333 10,000 -1,440 Descending Potomac TRACON
12:47AM 39.3000 -77.3333 102° East 270 311 8,300 -1,680 Descending Potomac TRACON
12:48AM 39.2833 -77.2500 104° East 257 296 6,700 -1,680 Descending Potomac TRACON
12:49AM 39.2500 -77.1667 117° Southeast 250 288 5,200 -1,440 Descending Potomac TRACON
12:50AM 39.2333 -77.0833 104° East 238 274 4,000 -900 Descending Potomac TRACON
12:51AM 39.2167 -77.0167 108° East 201 231 3,400 -840 Descending Potomac TRACON
12:52AM 39.2000 -76.9500 108° East 193 222 2,400 -540 Descending Potomac TRACON
12:53AM 39.1833 -76.8833 108° East 187 215 2,400 -120 Level Potomac TRACON
12:54AM 39.1833 -76.8333 90° East 158 182 2,200 -420 Descending Potomac TRACON
12:55AM 39.1833 -76.7833 90° East 124 143 1,600 -660 Descending Potomac TRACON
12:56AM 39.1833 -76.7333 90° East 128 147 900 -720 Descending Potomac TRACON
12:58AM 39.1667 -76.6667 142° Southeast  Level FlightAware Approximate
01:05AM 39.1754 -76.6683 142° Southeast  Level Estimated